Time,TemperatureF,DewpointF,PressureIn,WindDirection,WindDirectionDegrees,WindSpeedMPH,WindSpeedGustMPH,Humidity,HourlyPrecipIn,Conditions,Clouds,dailyrainin,SoftwareType,DateUTC
2013-04-27 00:01:00,48.2,18.9,30.21,SW,225,5.8,5.8,31,0.00,CLR,,0.00,WeatherDisplay:10.37,2013-04-27 04:01:00,
2013-04-27 00:06:00,48.0,18.8,30.22,South,180,5.8,5.8,31,0.00,CLR,,0.00,WeatherDisplay:10.37,2013-04-27 04:06:00,
2013-04-27 00:11:00,47.8,18.6,30.22,South,180,3.5,3.5,31,0.00,CLR,,0.00,WeatherDisplay:10.37,2013-04-27 04:11:00,
2013-04-27 00:16:00,47.8,18.6,30.22,WSW,247,3.5,3.5,31,0.00,CLR,,0.00,WeatherDisplay:10.37,2013-04-27 04:16:00,
2013-04-27 00:21:00,47.5,18.3,30.22,SSE,157,3.5,3.5,31,0.00,CLR,,0.00,WeatherDisplay:10.37,2013-04-27 04:21:00,
2013-04-27 00:26:00,47.5,18.3,30.22,SSW,202,3.8,3.8,31,0.00,CLR,,0.00,WeatherDisplay:10.37,2013-04-27 04:26:00,
2013-04-27 00:31:00,47.3,17.4,30.22,SW,225,4.0,4.0,30,0.00,CLR,,0.00,WeatherDisplay:10.37,2013-04-27 04:31:00,
2013-04-27 00:36:00,47.3,17.4,30.22,SW,225,4.0,4.0,30,0.00,CLR,,0.00,WeatherDisplay:10.37,2013-04-27 04:36:00,
2013-04-27 00:41:00,47.3,17.4,30.23,SW,225,4.0,4.0,30,0.00,CLR,,0.00,WeatherDisplay:10.37,2013-04-27 04:41:00,
2013-04-27 00:46:00,46.9,17.1,30.22,SSW,202,4.0,4.0,30,0.00,CLR,,0.00,WeatherDisplay:10.37,2013-04-27 04:46:00,
2013-04-27 00:51:00,46.8,16.9,30.23,SW,225,4.0,4.0,30,0.00,CLR,,0.00,WeatherDisplay:10.37,2013-04-27 04:51:00,
2013-04-27 00:56:00,46.8,16.9,30.23,South,180,4.0,4.0,30,0.00,CLR,,0.00,WeatherDisplay:10.37,2013-04-27 04:56:00,
2013-04-27 01:01:00,46.6,16.8,30.22,South,180,4.0,4.0,30,0.00,CLR,,0.00,WeatherDisplay:10.37,2013-04-27 05:01:00,
2013-04-27 01:06:00,46.4,16.6,30.23,South,180,4.6,4.6,30,0.00,CLR,,0.00,WeatherDisplay:10.37,2013-04-27 05:06:00,
2013-04-27 01:11:00,46.4,16.6,30.23,South,180,1.7,1.7,30,0.00,CLR,,0.00,WeatherDisplay:10.37,2013-04-27 05:11:00,
2013-04-27 01:16:00,46.2,16.4,30.23,SSE,157,5.1,5.1,30,0.00,CLR,,0.00,WeatherDisplay:10.37,2013-04-27 05:16:00,
2013-04-27 01:21:00,46.0,16.3,30.23,SSE,157,5.1,5.1,30,0.00,CLR,,0.00,WeatherDisplay:10.37,2013-04-27 05:21:00,
2013-04-27 01:26:00,46.0,16.3,30.24,SSE,157,5.1,5.1,30,0.00,CLR,,0.00,WeatherDisplay:10.37,2013-04-27 05:26:00,
2013-04-27 01:31:00,45.9,16.1,30.24,SSE,157,5.1,5.1,30,0.00,CLR,,0.00,WeatherDisplay:10.37,2013-04-27 05:31:00,
2013-04-27 01:36:00,45.7,16.0,30.25,SSW,202,5.1,5.1,30,0.00,CLR,,0.00,WeatherDisplay:10.37,2013-04-27 05:36:00,
2013-04-27 01:41:00,45.7,16.0,30.24,SSW,202,5.1,5.1,30,0.00,CLR,,0.00,WeatherDisplay:10.37,2013-04-27 05:41:00,
2013-04-27 01:46:00,45.5,15.8,30.25,SW,225,5.1,5.1,30,0.00,CLR,,0.00,WeatherDisplay:10.37,2013-04-27 05:46:00,
2013-04-27 01:51:00,45.5,15.8,30.25,SW,225,5.1,5.1,30,0.00,CLR,,0.00,WeatherDisplay:10.37,2013-04-27 05:51:00,
2013-04-27 01:56:00,45.5,15.8,30.25,SW,225,5.1,5.1,30,0.00,CLR,,0.00,WeatherDisplay:10.37,2013-04-27 05:56:00,
2013-04-27 02:01:00,45.3,15.7,30.25,SSW,202,5.1,5.1,30,0.00,CLR,,0.00,WeatherDisplay:10.37,2013-04-27 06:01:00,
2013-04-27 02:06:00,45.1,15.5,30.26,SSE,157,5.1,5.1,30,0.00,CLR,,0.00,WeatherDisplay:10.37,2013-04-27 06:06:00,
2013-04-27 02:11:00,45.1,15.5,30.26,South,180,2.6,2.6,30,0.00,CLR,,0.00,WeatherDisplay:10.37,2013-04-27 06:11:00,
2013-04-27 02:16:00,45.0,15.3,30.26,SSW,202,3.6,3.6,30,0.00,CLR,,0.00,WeatherDisplay:10.37,2013-04-27 06:16:00,
2013-04-27 02:21:00,44.8,15.2,30.25,SSW,202,3.6,3.6,30,0.00,CLR,,0.00,WeatherDisplay:10.37,2013-04-27 06:21:00,
2013-04-27 02:26:00,44.6,15.0,30.19,SSE,157,3.6,3.6,30,0.00,CLR,,0.00,WeatherDisplay:10.37,2013-04-27 06:26:00,
2013-04-27 02:31:00,44.6,15.0,30.19,SSE,157,3.6,3.6,30,0.00,CLR,,0.00,WeatherDisplay:10.37,2013-04-27 06:31:00,
2013-04-27 02:36:00,44.6,15.0,30.19,SSE,157,3.6,3.6,30,0.00,CLR,,0.00,WeatherDisplay:10.37,2013-04-27 06:36:00,
2013-04-27 02:41:00,44.6,15.0,30.19,South,180,3.6,3.6,30,0.00,CLR,,0.00,WeatherDisplay:10.37,2013-04-27 06:41:00,
2013-04-27 02:46:00,44.4,14.1,30.19,SSW,202,4.0,4.0,29,0.00,CLR,,0.00,WeatherDisplay:10.37,2013-04-27 06:46:00,
2013-04-27 02:51:00,44.4,14.9,30.19,South,180,4.0,4.0,30,0.00,CLR,,0.00,WeatherDisplay:10.37,2013-04-27 06:51:00,
2013-04-27 02:56:00,44.4,14.9,30.19,WSW,247,4.0,4.0,30,0.00,CLR,,0.00,WeatherDisplay:10.37,2013-04-27 06:56:00,
2013-04-27 03:01:00,44.2,14.7,30.25,SE,135,4.6,4.6,30,0.00,CLR,,0.00,WeatherDisplay:10.37,2013-04-27 07:01:00,
2013-04-27 03:06:00,44.2,14.7,30.25,SSW,202,4.6,4.6,30,0.00,CLR,,0.00,WeatherDisplay:10.37,2013-04-27 07:06:00,
2013-04-27 03:11:00,44.2,13.9,30.25,SSE,157,2.3,2.3,29,0.00,CLR,,0.00,WeatherDisplay:10.37,2013-04-27 07:11:00,
2013-04-27 03:16:00,44.2,13.9,30.25,South,180,3.5,3.5,29,0.00,CLR,,0.00,WeatherDisplay:10.37,2013-04-27 07:16:00,
2013-04-27 03:21:00,44.1,13.8,30.25,South,180,3.5,3.5,29,0.00,CLR,,0.00,WeatherDisplay:10.37,2013-04-27 07:21:00,
2013-04-27 03:26:00,43.9,13.6,30.19,South,180,3.6,3.6,29,0.00,CLR,,0.00,WeatherDisplay:10.37,2013-04-27 07:26:00,
2013-04-27 03:31:00,43.7,13.5,30.25,South,180,3.6,0.0,29,0.00,CLR,,0.00,WeatherDisplay:10.37,2013-04-27 07:31:00,
2013-04-27 03:36:00,43.7,13.5,30.19,SSW,202,3.6,3.6,29,0.00,CLR,,0.00,WeatherDisplay:10.37,2013-04-27 07:36:00,
2013-04-27 03:41:00,43.7,13.5,30.19,South,180,3.6,3.6,29,0.00,CLR,,0.00,WeatherDisplay:10.37,2013-04-27 07:41:00,
2013-04-27 03:46:00,43.5,13.3,30.19,South,180,3.6,3.6,29,0.00,CLR,,0.00,WeatherDisplay:10.37,2013-04-27 07:46:00,
2013-04-27 03:51:00,43.3,13.2,30.19,South,180,3.6,3.6,29,0.00,CLR,,0.00,WeatherDisplay:10.37,2013-04-27 07:51:00,
2013-04-27 03:56:00,43.3,13.2,30.19,SSW,202,3.6,0.0,29,0.00,CLR,,0.00,WeatherDisplay:10.37,2013-04-27 07:56:00,
2013-04-27 04:01:00,43.3,13.2,30.19,South,180,3.6,0.0,29,0.00,CLR,,0.00,WeatherDisplay:10.37,2013-04-27 08:01:00,
2013-04-27 04:06:00,43.2,13.0,30.19,SW,225,3.6,3.6,29,0.00,CLR,,0.00,WeatherDisplay:10.37,2013-04-27 08:06:00,
2013-04-27 04:11:00,43.0,12.8,30.19,SSE,157,0.3,0.0,29,0.00,CLR,,0.00,WeatherDisplay:10.37,2013-04-27 08:11:00,
2013-04-27 04:16:00,42.8,12.7,30.21,SSW,202,1.2,1.2,29,0.00,CLR,,0.00,WeatherDisplay:10.37,2013-04-27 08:16:00,
2013-04-27 04:21:00,42.8,12.7,30.21,SSE,157,1.2,1.2,29,0.00,CLR,,0.00,WeatherDisplay:10.37,2013-04-27 08:21:00,
2013-04-27 04:26:00,42.8,12.7,30.21,SSW,202,1.2,1.2,29,0.00,CLR,,0.00,WeatherDisplay:10.37,2013-04-27 08:26:00,
2013-04-27 04:31:00,42.6,12.5,30.19,SSE,157,2.3,2.3,29,0.00,CLR,,0.00,WeatherDisplay:10.37,2013-04-27 08:31:00,
2013-04-27 04:36:00,42.6,12.5,30.19,SSE,157,2.3,2.3,29,0.00,CLR,,0.00,WeatherDisplay:10.37,2013-04-27 08:36:00,
2013-04-27 04:41:00,42.4,12.4,30.19,SSW,202,2.3,2.3,29,0.00,CLR,,0.00,WeatherDisplay:10.37,2013-04-27 08:41:00,
2013-04-27 04:46:00,42.4,12.4,30.21,South,180,2.6,2.6,29,0.00,CLR,,0.00,WeatherDisplay:10.37,2013-04-27 08:46:00,
2013-04-27 04:51:00,42.4,12.4,30.19,South,180,2.6,2.6,29,0.00,CLR,,0.00,WeatherDisplay:10.37,2013-04-27 08:51:00,
2013-04-27 04:56:00,42.3,12.2,30.19,South,180,2.6,2.6,29,0.00,CLR,,0.00,WeatherDisplay:10.37,2013-04-27 08:56:00,
2013-04-27 05:01:00,42.3,12.2,30.19,SSE,157,2.6,2.6,29,0.00,CLR,,0.00,WeatherDisplay:10.37,2013-04-27 09:01:00,
2013-04-27 05:06:00,42.3,12.2,30.19,South,180,2.6,2.6,29,0.00,CLR,,0.00,WeatherDisplay:10.37,2013-04-27 09:06:00,
2013-04-27 05:11:00,42.1,12.1,30.19,South,180,2.4,0.0,29,0.00,CLR,,0.00,WeatherDisplay:10.37,2013-04-27 09:11:00,
2013-04-27 05:16:00,41.9,11.9,30.19,South,180,2.4,2.4,29,0.00,CLR,,0.00,WeatherDisplay:10.37,2013-04-27 09:16:00,
2013-04-27 05:21:00,41.7,11.7,30.19,South,180,2.4,2.4,29,0.00,CLR,,0.00,WeatherDisplay:10.37,2013-04-27 09:21:00,
2013-04-27 05:26:00,41.5,11.6,30.19,South,180,2.4,2.4,29,0.00,CLR,,0.00,WeatherDisplay:10.37,2013-04-27 09:26:00,
2013-04-27 05:31:00,41.4,11.4,30.19,SSE,157,2.4,2.4,29,0.00,CLR,,0.00,WeatherDisplay:10.37,2013-04-27 09:31:00,
2013-04-27 05:36:00,41.4,11.4,30.19,SSW,202,2.6,2.6,29,0.00,CLR,,0.00,WeatherDisplay:10.37,2013-04-27 09:36:00,
2013-04-27 05:41:00,41.4,11.4,30.19,South,180,2.6,2.6,29,0.00,CLR,,0.00,WeatherDisplay:10.37,2013-04-27 09:41:00,
2013-04-27 05:46:00,41.4,11.4,30.19,SSE,157,2.6,2.6,29,0.00,CLR,,0.00,WeatherDisplay:10.37,2013-04-27 09:46:00,
2013-04-27 05:51:00,41.4,11.4,30.19,SSE,157,2.6,2.6,29,0.00,CLR,,0.00,WeatherDisplay:10.37,2013-04-27 09:51:00,
2013-04-27 05:56:00,41.2,11.3,30.19,SSW,202,2.6,2.6,29,0.00,CLR,,0.00,WeatherDisplay:10.37,2013-04-27 09:56:00,
2013-04-27 06:01:00,41.0,11.1,30.19,South,180,2.6,2.6,29,0.00,CLR,,0.00,WeatherDisplay:10.37,2013-04-27 10:01:00,
2013-04-27 06:06:00,40.8,11.0,30.19,South,180,2.6,0.0,29,0.00,CLR,,0.00,WeatherDisplay:10.37,2013-04-27 10:06:00,
2013-04-27 06:11:00,40.6,10.8,30.19,WSW,247,0.0,0.0,29,0.00,CLR,,0.00,WeatherDisplay:10.37,2013-04-27 10:11:00,
2013-04-27 06:16:00,40.5,10.7,30.19,South,180,0.3,0.3,29,0.00,CLR,,0.00,WeatherDisplay:10.37,2013-04-27 10:16:00,
2013-04-27 06:21:00,40.5,10.7,30.21,South,180,0.3,0.0,29,0.00,CLR,,0.00,WeatherDisplay:10.37,2013-04-27 10:21:00,
2013-04-27 06:26:00,40.3,10.5,30.21,South,180,1.2,1.2,29,0.00,CLR,,0.00,WeatherDisplay:10.37,2013-04-27 10:26:00,
2013-04-27 06:31:00,40.5,10.7,30.21,SSE,157,1.2,0.0,29,0.00,CLR,,0.00,WeatherDisplay:10.37,2013-04-27 10:31:00,
2013-04-27 06:36:00,40.5,10.7,30.21,SSE,157,1.2,0.0,29,0.00,CLR,,0.00,WeatherDisplay:10.37,2013-04-27 10:36:00,
2013-04-27 06:41:00,40.5,10.7,30.22,SSE,157,1.2,0.0,29,0.00,CLR,,0.00,WeatherDisplay:10.37,2013-04-27 10:41:00,
2013-04-27 06:46:00,40.5,10.7,30.22,SSE,157,1.2,0.0,29,0.00,CLR,,0.00,WeatherDisplay:10.37,2013-04-27 10:46:00,
2013-04-27 06:51:00,40.5,10.7,30.21,SSE,157,1.2,0.0,29,0.00,CLR,,0.00,WeatherDisplay:10.37,2013-04-27 10:51:00,
2013-04-27 06:56:00,38.7,10.6,30.22,SSE,157,1.2,0.0,31,0.00,CLR,,0.00,WeatherDisplay:10.37,2013-04-27 10:56:00,
2013-04-27 07:01:00,40.5,12.2,30.22,SE,135,1.2,0.0,31,0.00,CLR,,0.00,WeatherDisplay:10.37,2013-04-27 11:01:00,
2013-04-27 07:06:00,40.5,10.7,30.22,SSE,157,1.2,0.0,29,0.00,CLR,,0.00,WeatherDisplay:10.37,2013-04-27 11:06:00,
2013-04-27 07:11:00,40.6,12.3,30.22,SSE,157,0.3,0.0,31,0.00,CLR,,0.00,WeatherDisplay:10.37,2013-04-27 11:11:00,
2013-04-27 07:16:00,41.0,11.1,30.22,SSE,157,0.3,0.3,29,0.00,CLR,,0.00,WeatherDisplay:10.37,2013-04-27 11:16:00,
2013-04-27 07:21:00,41.4,11.4,30.24,SSE,157,0.3,0.3,29,0.00,CLR,,0.00,WeatherDisplay:10.37,2013-04-27 11:21:00,
2013-04-27 07:26:00,43.2,13.0,30.24,SSE,157,1.3,1.3,29,0.00,CLR,,0.00,WeatherDisplay:10.37,2013-04-27 11:26:00,
2013-04-27 07:31:00,43.9,13.6,30.24,South,180,2.3,0.0,29,0.00,CLR,,0.00,WeatherDisplay:10.37,2013-04-27 11:31:00,
2013-04-27 07:36:00,44.4,14.1,30.24,SSE,157,2.3,2.3,29,0.00,CLR,,0.00,WeatherDisplay:10.37,2013-04-27 11:36:00,
2013-04-27 07:41:00,45.0,14.6,30.25,SSE,157,2.3,0.0,29,0.00,CLR,,0.00,WeatherDisplay:10.37,2013-04-27 11:41:00,
2013-04-27 07:46:00,45.5,15.0,30.25,South,180,2.3,0.0,29,0.00,CLR,,0.00,WeatherDisplay:10.37,2013-04-27 11:46:00,
2013-04-27 07:51:00,45.5,15.0,30.25,South,180,2.3,0.0,29,0.00,CLR,,0.00,WeatherDisplay:10.37,2013-04-27 11:51:00,
2013-04-27 07:56:00,45.3,14.9,30.25,South,180,2.4,2.4,29,0.00,CLR,,0.00,WeatherDisplay:10.37,2013-04-27 11:56:00,
2013-04-27 08:01:00,45.7,15.2,30.25,South,180,2.4,2.4,29,0.00,CLR,,0.00,WeatherDisplay:10.37,2013-04-27 12:01:00,
2013-04-27 08:06:00,46.0,15.5,30.19,South,180,2.4,2.4,29,0.00,CLR,,0.00,WeatherDisplay:10.37,2013-04-27 12:06:00,
2013-04-27 08:11:00,46.8,16.1,30.19,SW,225,2.3,2.3,29,0.00,CLR,,0.00,WeatherDisplay:10.37,2013-04-27 12:11:00,
2013-04-27 08:16:00,47.1,16.4,30.20,SW,225,2.3,2.3,29,0.00,CLR,,0.00,WeatherDisplay:10.37,2013-04-27 12:16:00,
2013-04-27 08:21:00,47.3,16.6,30.20,SSW,202,2.3,2.3,29,0.00,CLR,,0.00,WeatherDisplay:10.37,2013-04-27 12:21:00,
2013-04-27 08:26:00,48.2,17.4,30.20,SW,225,2.3,2.3,29,0.00,CLR,,0.00,WeatherDisplay:10.37,2013-04-27 12:26:00,
2013-04-27 08:31:00,49.5,18.5,30.20,South,180,2.3,2.3,29,0.00,CLR,,0.00,WeatherDisplay:10.37,2013-04-27 12:31:00,
2013-04-27 08:36:00,49.5,18.5,30.20,South,180,2.3,2.3,29,0.00,CLR,,0.00,WeatherDisplay:10.37,2013-04-27 12:36:00,
2013-04-27 08:41:00,49.5,18.5,30.20,SW,225,2.3,2.3,29,0.00,CLR,,0.00,WeatherDisplay:10.37,2013-04-27 12:41:00,
2013-04-27 08:46:00,49.5,18.5,30.20,SW,225,2.3,2.3,29,0.00,CLR,,0.00,WeatherDisplay:10.37,2013-04-27 12:46:00,
2013-04-27 08:51:00,49.5,18.5,30.20,SW,225,2.3,2.3,29,0.00,CLR,,0.00,WeatherDisplay:10.37,2013-04-27 12:51:00,
2013-04-27 08:56:00,49.5,18.5,30.21,SW,225,2.3,2.3,29,0.00,CLR,,0.00,WeatherDisplay:10.37,2013-04-27 12:56:00,
2013-04-27 09:01:00,49.5,18.5,30.20,SW,225,2.3,2.3,29,0.00,CLR,,0.00,WeatherDisplay:10.37,2013-04-27 13:01:00,
2013-04-27 09:06:00,49.5,18.5,30.20,SW,225,2.3,2.3,29,0.00,CLR,,0.00,WeatherDisplay:10.37,2013-04-27 13:06:00,
2013-04-27 09:11:00,49.5,18.5,30.20,SW,225,1.3,1.3,29,0.00,CLR,,0.00,WeatherDisplay:10.37,2013-04-27 13:11:00,
2013-04-27 09:16:00,49.5,18.5,30.20,SW,225,1.3,1.3,29,0.00,CLR,,0.00,WeatherDisplay:10.37,2013-04-27 13:16:00,
2013-04-27 09:21:00,57.9,25.8,30.20,WSW,247,2.3,2.3,29,0.00,CLR,,0.00,WeatherDisplay:10.37,2013-04-27 13:21:00,
2013-04-27 09:26:00,59.7,27.4,30.20,SW,225,2.8,2.8,29,0.00,CLR,,0.00,WeatherDisplay:10.37,2013-04-27 13:26:00,
2013-04-27 09:31:00,59.9,27.5,30.20,SSW,202,3.6,3.6,29,0.00,CLR,,0.00,WeatherDisplay:10.37,2013-04-27 13:31:00,
2013-04-27 09:36:00,60.8,28.3,30.20,SW,225,4.6,4.6,29,0.00,CLR,,0.00,WeatherDisplay:10.37,2013-04-27 13:36:00,
2013-04-27 09:41:00,61.2,28.6,30.20,South,180,4.7,4.7,29,0.00,CLR,,0.00,WeatherDisplay:10.37,2013-04-27 13:41:00,
2013-04-27 09:48:00,62.2,29.6,30.20,SW,225,4.7,4.7,29,0.00,CLR,,0.00,WeatherDisplay:10.37,2013-04-27 13:48:00,
2013-04-27 09:53:00,62.4,29.7,30.19,SSE,157,4.9,4.9,29,0.00,CLR,,0.00,WeatherDisplay:10.37,2013-04-27 13:53:00,
2013-04-27 09:58:00,63.5,30.6,30.19,West,270,5.8,5.8,29,0.00,CLR,,0.00,WeatherDisplay:10.37,2013-04-27 13:58:00,
2013-04-27 10:03:00,63.3,30.5,30.18,SW,225,6.5,6.5,29,0.00,CLR,,0.00,WeatherDisplay:10.37,2013-04-27 14:03:00,
2013-04-27 10:08:00,63.9,31.0,30.18,WSW,247,1.7,1.7,29,0.00,CLR,,0.00,WeatherDisplay:10.37,2013-04-27 14:08:00,
2013-04-27 10:13:00,63.9,31.0,30.18,WSW,247,3.8,3.8,29,0.00,CLR,,0.00,WeatherDisplay:10.37,2013-04-27 14:13:00,
2013-04-27 10:18:00,66.7,33.4,30.19,West,270,3.8,6.1,29,0.00,CLR,,0.00,WeatherDisplay:10.37,2013-04-27 14:18:00,
2013-04-27 10:23:00,66.4,33.1,30.19,SW,225,6.1,6.1,29,0.00,CLR,,0.00,WeatherDisplay:10.37,2013-04-27 14:23:00,
2013-04-27 10:28:00,66.7,33.4,30.18,SSW,202,6.1,6.1,29,0.00,CLR,,0.00,WeatherDisplay:10.37,2013-04-27 14:28:00,
2013-04-27 10:33:00,67.8,34.4,30.24,SSW,202,6.1,6.1,29,0.00,CLR,,0.00,WeatherDisplay:10.37,2013-04-27 14:33:00,
2013-04-27 10:38:00,68.0,34.5,30.22,WSW,247,6.1,6.1,29,0.00,CLR,,0.00,WeatherDisplay:10.37,2013-04-27 14:38:00,
2013-04-27 10:43:00,68.2,34.7,30.21,SW,225,6.1,6.1,29,0.00,CLR,,0.00,WeatherDisplay:10.37,2013-04-27 14:43:00,
2013-04-27 10:48:00,68.4,34.8,30.19,WSW,247,6.1,6.1,29,0.00,CLR,,0.00,WeatherDisplay:10.37,2013-04-27 14:48:00,
2013-04-27 10:53:00,68.5,35.0,30.18,WNW,292,6.1,6.1,29,0.00,CLR,,0.00,WeatherDisplay:10.37,2013-04-27 14:53:00,
2013-04-27 10:58:00,68.4,34.8,30.18,SSW,202,6.1,6.1,29,0.00,CLR,,0.00,WeatherDisplay:10.37,2013-04-27 14:58:00,
2013-04-27 11:03:00,69.4,35.8,30.17,SSW,202,6.1,6.1,29,0.00,CLR,,0.00,WeatherDisplay:10.37,2013-04-27 15:03:00,
2013-04-27 11:08:00,69.8,36.1,30.16,WSW,247,5.8,5.8,29,0.00,CLR,,0.00,WeatherDisplay:10.37,2013-04-27 15:08:00,
2013-04-27 11:13:00,70.3,36.6,30.16,WSW,247,5.8,5.8,29,0.00,CLR,,0.00,WeatherDisplay:10.37,2013-04-27 15:13:00,
2013-04-27 11:18:00,70.5,36.7,30.22,WNW,292,5.8,5.8,29,0.00,CLR,,0.00,WeatherDisplay:10.37,2013-04-27 15:18:00,
2013-04-27 11:23:00,70.7,36.9,30.21,WSW,247,5.8,5.8,29,0.00,CLR,,0.00,WeatherDisplay:10.37,2013-04-27 15:23:00,
2013-04-27 11:28:00,72.3,38.3,30.19,SSE,157,5.8,5.8,29,0.00,CLR,,0.00,WeatherDisplay:10.37,2013-04-27 15:28:00,
2013-04-27 11:33:00,72.7,38.6,30.18,South,180,5.8,5.8,29,0.00,CLR,,0.00,WeatherDisplay:10.37,2013-04-27 15:33:00,
2013-04-27 11:38:00,72.7,38.6,30.17,SW,225,5.8,5.8,29,0.00,CLR,,0.00,WeatherDisplay:10.37,2013-04-27 15:38:00,
2013-04-27 11:43:00,72.1,38.1,30.17,SW,225,5.8,5.8,29,0.00,CLR,,0.00,WeatherDisplay:10.37,2013-04-27 15:43:00,
2013-04-27 11:48:00,73.2,39.0,30.17,SE,135,5.8,5.8,29,0.00,CLR,,0.00,WeatherDisplay:10.37,2013-04-27 15:48:00,
2013-04-27 11:53:00,73.8,39.5,30.17,South,180,5.8,5.8,29,0.00,CLR,,0.00,WeatherDisplay:10.37,2013-04-27 15:53:00,
2013-04-27 11:58:00,74.3,40.0,30.17,East,90,5.8,5.8,29,0.00,CLR,,0.00,WeatherDisplay:10.37,2013-04-27 15:58:00,
2013-04-27 12:03:00,74.8,40.4,30.16,ESE,112,5.8,5.8,29,0.00,CLR,,0.00,WeatherDisplay:10.37,2013-04-27 16:03:00,
2013-04-27 12:08:00,75.0,40.6,30.15,NNW,337,3.5,3.5,29,0.00,CLR,,0.00,WeatherDisplay:10.37,2013-04-27 16:08:00,
2013-04-27 12:13:00,75.0,40.6,30.14,ESE,112,3.5,3.5,29,0.00,CLR,,0.00,WeatherDisplay:10.37,2013-04-27 16:13:00,
2013-04-27 12:18:00,76.1,40.6,30.19,South,180,4.6,4.6,28,0.00,CLR,,0.00,WeatherDisplay:10.37,2013-04-27 16:18:00,
2013-04-27 12:23:00,76.5,40.9,30.19,South,180,6.1,6.1,28,0.00,CLR,,0.00,WeatherDisplay:10.37,2013-04-27 16:23:00,
2013-04-27 12:28:00,75.9,40.5,30.18,SSE,157,6.9,6.9,28,0.00,CLR,,0.00,WeatherDisplay:10.37,2013-04-27 16:28:00,
2013-04-27 12:33:00,75.4,40.0,30.18,SSW,202,6.9,6.9,28,0.00,CLR,,0.00,WeatherDisplay:10.37,2013-04-27 16:33:00,
2013-04-27 12:38:00,75.7,40.3,30.17,SW,225,6.9,6.9,28,0.00,CLR,,0.00,WeatherDisplay:10.37,2013-04-27 16:38:00,
2013-04-27 12:43:00,76.1,40.6,30.17,SSE,157,6.9,6.9,28,0.00,CLR,,0.00,WeatherDisplay:10.37,2013-04-27 16:43:00,
2013-04-27 12:48:00,76.6,41.1,30.16,SSE,157,6.9,6.9,28,0.00,CLR,,0.00,WeatherDisplay:10.37,2013-04-27 16:48:00,
2013-04-27 12:53:00,76.5,40.9,30.16,SSW,202,6.9,6.9,28,0.00,CLR,,0.00,WeatherDisplay:10.37,2013-04-27 16:53:00,
2013-04-27 12:58:00,75.7,40.3,30.16,SE,135,6.9,6.9,28,0.00,CLR,,0.00,WeatherDisplay:10.37,2013-04-27 16:58:00,
2013-04-27 13:03:00,75.9,41.4,30.15,SSE,157,6.9,6.9,29,0.00,CLR,,0.00,WeatherDisplay:10.37,2013-04-27 17:03:00,
2013-04-27 13:08:00,77.5,42.8,30.15,SSE,157,6.9,6.9,29,0.00,CLR,,0.00,WeatherDisplay:10.37,2013-04-27 17:08:00,
2013-04-27 13:13:00,77.9,43.1,30.15,West,270,5.8,5.8,29,0.00,CLR,,0.00,WeatherDisplay:10.37,2013-04-27 17:13:00,
2013-04-27 13:18:00,78.1,43.2,30.15,South,180,6.9,6.9,29,0.00,CLR,,0.00,WeatherDisplay:10.37,2013-04-27 17:18:00,
2013-04-27 13:23:00,78.3,43.4,30.14,South,180,6.9,6.9,29,0.00,CLR,,0.00,WeatherDisplay:10.37,2013-04-27 17:23:00,
2013-04-27 13:28:00,77.9,42.2,30.13,SW,225,6.9,6.9,28,0.00,CLR,,0.00,WeatherDisplay:10.37,2013-04-27 17:28:00,
2013-04-27 13:33:00,77.7,42.9,30.13,South,180,6.9,6.9,29,0.00,CLR,,0.00,WeatherDisplay:10.37,2013-04-27 17:33:00,
2013-04-27 13:38:00,77.7,42.9,30.13,SSW,202,6.9,6.9,29,0.00,CLR,,0.00,WeatherDisplay:10.37,2013-04-27 17:38:00,
2013-04-27 13:43:00,77.5,41.8,30.12,SSE,157,6.9,6.9,28,0.00,CLR,,0.00,WeatherDisplay:10.37,2013-04-27 17:43:00,
2013-04-27 13:48:00,78.4,42.6,30.12,ESE,112,6.9,6.9,28,0.00,CLR,,0.00,WeatherDisplay:10.37,2013-04-27 17:48:00,
2013-04-27 13:53:00,78.1,42.3,30.12,SSE,157,6.9,6.9,28,0.00,CLR,,0.00,WeatherDisplay:10.37,2013-04-27 17:53:00,
2013-04-27 13:58:00,78.3,42.5,30.12,SE,135,6.9,6.9,28,0.00,CLR,,0.00,WeatherDisplay:10.37,2013-04-27 17:58:00,
2013-04-27 14:03:00,78.3,42.5,30.11,South,180,6.9,6.9,28,0.00,CLR,,0.00,WeatherDisplay:10.37,2013-04-27 18:03:00,
2013-04-27 14:08:00,77.0,41.4,30.11,SW,225,6.9,6.9,28,0.00,CLR,,0.00,WeatherDisplay:10.37,2013-04-27 18:08:00,
2013-04-27 14:13:00,77.5,41.8,30.11,South,180,6.9,6.9,28,0.00,CLR,,0.00,WeatherDisplay:10.37,2013-04-27 18:13:00,
2013-04-27 14:18:00,77.9,42.2,30.10,SW,225,6.9,6.9,28,0.00,CLR,,0.00,WeatherDisplay:10.37,2013-04-27 18:18:00,
2013-04-27 14:23:00,76.6,41.1,30.11,WNW,292,6.9,6.9,28,0.00,CLR,,0.00,WeatherDisplay:10.37,2013-04-27 18:23:00,
2013-04-27 14:28:00,76.1,40.6,30.10,SW,225,6.9,6.9,28,0.00,CLR,,0.00,WeatherDisplay:10.37,2013-04-27 18:28:00,
2013-04-27 14:33:00,76.6,41.1,30.10,WSW,247,6.9,6.9,28,0.00,CLR,,0.00,WeatherDisplay:10.37,2013-04-27 18:33:00,
2013-04-27 14:38:00,77.0,41.4,30.10,East,90,6.9,6.9,28,0.00,CLR,,0.00,WeatherDisplay:10.37,2013-04-27 18:38:00,
2013-04-27 14:43:00,78.1,42.3,30.10,WSW,247,6.9,6.9,28,0.00,CLR,,0.00,WeatherDisplay:10.37,2013-04-27 18:43:00,
2013-04-27 14:48:00,78.1,42.3,30.09,WSW,247,6.9,6.9,28,0.00,CLR,,0.00,WeatherDisplay:10.37,2013-04-27 18:48:00,
2013-04-27 14:53:00,77.5,41.8,30.09,WSW,247,6.9,6.9,28,0.00,CLR,,0.00,WeatherDisplay:10.37,2013-04-27 18:53:00,
2013-04-27 14:58:00,77.7,42.0,30.09,SSE,157,6.9,6.9,28,0.00,CLR,,0.00,WeatherDisplay:10.37,2013-04-27 18:58:00,
2013-04-27 15:03:00,78.1,42.3,30.09,ESE,112,6.9,6.9,28,0.00,CLR,,0.00,WeatherDisplay:10.37,2013-04-27 19:03:00,
2013-04-27 15:08:00,78.4,42.6,30.09,SW,225,6.9,6.9,28,0.00,CLR,,0.00,WeatherDisplay:10.37,2013-04-27 19:08:00,
2013-04-27 15:13:00,77.2,41.5,30.08,ESE,112,4.6,4.6,28,0.00,CLR,,0.00,WeatherDisplay:10.37,2013-04-27 19:13:00,
2013-04-27 15:18:00,77.5,41.8,30.09,SW,225,4.7,4.7,28,0.00,CLR,,0.00,WeatherDisplay:10.37,2013-04-27 19:18:00,
2013-04-27 15:23:00,76.8,41.2,30.08,West,270,6.9,6.9,28,0.00,CLR,,0.00,WeatherDisplay:10.37,2013-04-27 19:23:00,
2013-04-27 15:28:00,76.8,41.2,30.08,West,270,6.9,6.9,28,0.00,CLR,,0.00,WeatherDisplay:10.37,2013-04-27 19:28:00,
2013-04-27 15:33:00,75.9,40.5,30.08,SSE,157,9.2,9.2,28,0.00,CLR,,0.00,WeatherDisplay:10.37,2013-04-27 19:33:00,
2013-04-27 15:38:00,76.1,40.6,30.07,South,180,9.2,9.2,28,0.00,CLR,,0.00,WeatherDisplay:10.37,2013-04-27 19:38:00,
2013-04-27 15:43:00,75.9,40.5,30.07,WSW,247,9.2,9.2,28,0.00,CLR,,0.00,WeatherDisplay:10.37,2013-04-27 19:43:00,
2013-04-27 15:48:00,75.7,40.3,30.06,South,180,9.2,9.2,28,0.00,CLR,,0.00,WeatherDisplay:10.37,2013-04-27 19:48:00,
2013-04-27 15:53:00,75.4,40.0,30.06,SW,225,9.2,9.2,28,0.00,CLR,,0.00,WeatherDisplay:10.37,2013-04-27 19:53:00,
2013-04-27 15:58:00,75.6,40.2,30.05,SSE,157,9.2,9.2,28,0.00,CLR,,0.00,WeatherDisplay:10.37,2013-04-27 19:58:00,
2013-04-27 16:03:00,75.6,40.2,30.11,SW,225,9.2,9.2,28,0.00,CLR,,0.00,WeatherDisplay:10.37,2013-04-27 20:03:00,
2013-04-27 16:08:00,74.8,39.5,30.11,NNE,22,9.2,9.2,28,0.00,CLR,,0.00,WeatherDisplay:10.37,2013-04-27 20:08:00,
2013-04-27 16:13:00,74.8,39.5,30.10,SSE,157,5.8,5.8,28,0.00,CLR,,0.00,WeatherDisplay:10.37,2013-04-27 20:13:00,
2013-04-27 16:18:00,74.8,39.5,30.10,SSE,157,5.8,5.8,28,0.00,CLR,,0.00,WeatherDisplay:10.37,2013-04-27 20:18:00,
2013-04-27 16:23:00,75.0,39.7,30.10,SE,135,6.3,6.3,28,0.00,CLR,,0.00,WeatherDisplay:10.37,2013-04-27 20:23:00,
2013-04-27 16:28:00,74.7,39.4,30.09,SSW,202,7.3,7.3,28,0.00,CLR,,0.00,WeatherDisplay:10.37,2013-04-27 20:28:00,
2013-04-27 16:33:00,74.7,39.4,30.08,South,180,7.3,7.3,28,0.00,CLR,,0.00,WeatherDisplay:10.37,2013-04-27 20:33:00,
2013-04-27 16:38:00,74.1,38.9,30.08,SSE,157,7.3,7.3,28,0.00,CLR,,0.00,WeatherDisplay:10.37,2013-04-27 20:38:00,
2013-04-27 16:43:00,74.1,38.9,30.09,ESE,112,7.3,7.3,28,0.00,CLR,,0.00,WeatherDisplay:10.37,2013-04-27 20:43:00,
2013-04-27 16:48:00,73.9,38.8,30.07,SSW,202,7.3,7.3,28,0.00,CLR,,0.00,WeatherDisplay:10.37,2013-04-27 20:48:00,
2013-04-27 16:53:00,73.8,38.6,30.07,South,180,7.3,7.3,28,0.00,CLR,,0.00,WeatherDisplay:10.37,2013-04-27 20:53:00,
2013-04-27 16:58:00,73.0,38.0,30.07,SSE,157,7.3,7.3,28,0.00,CLR,,0.00,WeatherDisplay:10.37,2013-04-27 20:58:00,
2013-04-27 17:03:00,73.0,38.0,30.05,SSE,157,7.3,7.3,28,0.00,CLR,,0.00,WeatherDisplay:10.37,2013-04-27 21:03:00,
2013-04-27 17:08:00,73.2,38.1,30.05,SSE,157,6.9,6.9,28,0.00,CLR,,0.00,WeatherDisplay:10.37,2013-04-27 21:08:00,
2013-04-27 17:13:00,73.2,38.1,30.04,South,180,5.8,5.8,28,0.00,CLR,,0.00,WeatherDisplay:10.37,2013-04-27 21:13:00,
2013-04-27 17:18:00,73.2,38.1,30.04,South,180,5.8,5.8,28,0.00,CLR,,0.00,WeatherDisplay:10.37,2013-04-27 21:18:00,
2013-04-27 17:23:00,72.5,37.5,30.04,SSE,157,5.8,5.8,28,0.00,CLR,,0.00,WeatherDisplay:10.37,2013-04-27 21:23:00,
2013-04-27 17:28:00,72.1,37.2,30.05,WSW,247,5.8,5.8,28,0.00,CLR,,0.00,WeatherDisplay:10.37,2013-04-27 21:28:00,
2013-04-27 17:33:00,72.0,37.1,30.05,SSE,157,6.9,6.9,28,0.00,CLR,,0.00,WeatherDisplay:10.37,2013-04-27 21:33:00,
2013-04-27 17:38:00,71.8,36.9,30.04,South,180,6.9,6.9,28,0.00,CLR,,0.00,WeatherDisplay:10.37,2013-04-27 21:38:00,
2013-04-27 17:43:00,71.6,36.8,30.04,SSE,157,6.9,6.9,28,0.00,CLR,,0.00,WeatherDisplay:10.37,2013-04-27 21:43:00,
2013-04-27 17:48:00,71.6,36.8,30.04,South,180,6.9,6.9,28,0.00,CLR,,0.00,WeatherDisplay:10.37,2013-04-27 21:48:00,
2013-04-27 17:53:00,71.6,36.8,30.03,SSE,157,6.9,6.9,28,0.00,CLR,,0.00,WeatherDisplay:10.37,2013-04-27 21:53:00,
2013-04-27 17:58:00,71.2,36.4,30.03,SSE,157,6.9,6.9,28,0.00,CLR,,0.00,WeatherDisplay:10.37,2013-04-27 21:58:00,
2013-04-27 18:03:00,71.1,36.3,30.04,South,180,6.9,6.9,28,0.00,CLR,,0.00,WeatherDisplay:10.37,2013-04-27 22:03:00,
2013-04-27 18:08:00,70.5,35.8,30.03,SSE,157,6.9,6.9,28,0.00,CLR,,0.00,WeatherDisplay:10.37,2013-04-27 22:08:00,
2013-04-27 18:13:00,70.3,35.7,30.03,West,270,6.3,6.3,28,0.00,CLR,,0.00,WeatherDisplay:10.37,2013-04-27 22:13:00,
2013-04-27 18:18:00,70.3,35.7,30.03,ESE,112,6.3,6.3,28,0.00,CLR,,0.00,WeatherDisplay:10.37,2013-04-27 22:18:00,
2013-04-27 18:23:00,70.0,35.4,30.02,SSW,202,6.3,6.3,28,0.00,CLR,,0.00,WeatherDisplay:10.37,2013-04-27 22:23:00,
2013-04-27 18:28:00,69.6,35.0,30.02,SSW,202,6.3,6.3,28,0.00,CLR,,0.00,WeatherDisplay:10.37,2013-04-27 22:28:00,
2013-04-27 18:33:00,69.6,35.0,30.01,ESE,112,6.3,6.3,28,0.00,CLR,,0.00,WeatherDisplay:10.37,2013-04-27 22:33:00,
2013-04-27 18:38:00,69.6,35.0,30.02,ESE,112,6.3,6.3,28,0.00,CLR,,0.00,WeatherDisplay:10.37,2013-04-27 22:38:00,
2013-04-27 18:43:00,69.3,34.7,30.01,South,180,6.3,6.3,28,0.00,CLR,,0.00,WeatherDisplay:10.37,2013-04-27 22:43:00,
2013-04-27 18:48:00,68.5,34.1,30.01,South,180,6.3,6.3,28,0.00,CLR,,0.00,WeatherDisplay:10.37,2013-04-27 22:48:00,
2013-04-27 18:53:00,68.2,34.7,30.00,NE,45,6.3,6.3,29,0.00,CLR,,0.00,WeatherDisplay:10.37,2013-04-27 22:53:00,
2013-04-27 18:58:00,67.8,34.4,29.99,SSE,157,6.3,6.3,29,0.00,CLR,,0.00,WeatherDisplay:10.37,2013-04-27 22:58:00,
2013-04-27 19:03:00,67.8,34.4,29.99,South,180,6.3,6.3,29,0.00,CLR,,0.00,WeatherDisplay:10.37,2013-04-27 23:03:00,
2013-04-27 19:08:00,67.3,33.9,30.04,SE,135,5.8,5.8,29,0.00,CLR,,0.00,WeatherDisplay:10.37,2013-04-27 23:08:00,
2013-04-27 19:13:00,67.1,33.8,30.03,SE,135,5.8,5.8,29,0.00,CLR,,0.00,WeatherDisplay:10.37,2013-04-27 23:13:00,
2013-04-27 19:18:00,66.7,33.4,30.03,ESE,112,5.8,5.8,29,0.00,CLR,,0.00,WeatherDisplay:10.37,2013-04-27 23:18:00,
2013-04-27 19:23:00,66.4,33.1,30.02,South,180,5.8,5.8,29,0.00,CLR,,0.00,WeatherDisplay:10.37,2013-04-27 23:23:00,
2013-04-27 19:28:00,66.4,33.1,30.02,South,180,5.8,5.8,29,0.00,CLR,,0.00,WeatherDisplay:10.37,2013-04-27 23:28:00,
2013-04-27 19:33:00,66.4,33.1,30.02,SSE,157,5.8,5.8,29,0.00,CLR,,0.00,WeatherDisplay:10.37,2013-04-27 23:33:00,
2013-04-27 19:38:00,65.7,32.5,30.01,SSE,157,5.9,5.9,29,0.00,CLR,,0.00,WeatherDisplay:10.37,2013-04-27 23:38:00,
2013-04-27 19:43:00,65.1,32.0,30.01,SE,135,5.9,5.9,29,0.00,CLR,,0.00,WeatherDisplay:10.37,2013-04-27 23:43:00,
2013-04-27 19:48:00,65.1,32.0,30.01,South,180,5.9,5.9,29,0.00,CLR,,0.00,WeatherDisplay:10.37,2013-04-27 23:48:00,
2013-04-27 19:53:00,64.8,31.7,30.00,South,180,5.9,5.9,29,0.00,CLR,,0.00,WeatherDisplay:10.37,2013-04-27 23:53:00,
2013-04-27 19:58:00,64.2,31.3,30.00,SSW,202,5.9,5.9,29,0.00,CLR,,0.00,WeatherDisplay:10.37,2013-04-27 23:58:00,
2013-04-27 20:03:00,64.0,31.1,30.01,SSE,157,5.9,5.9,29,0.00,CLR,,0.00,WeatherDisplay:10.37,2013-04-28 00:03:00,
2013-04-27 20:08:00,63.7,30.8,30.01,SE,135,5.8,5.8,29,0.00,CLR,,0.00,WeatherDisplay:10.37,2013-04-28 00:08:00,
2013-04-27 20:13:00,63.3,30.5,30.01,SSE,157,2.6,2.6,29,0.00,CLR,,0.00,WeatherDisplay:10.37,2013-04-28 00:13:00,
2013-04-27 20:18:00,63.3,30.5,30.00,SSE,157,2.6,2.6,29,0.00,CLR,,0.00,WeatherDisplay:10.37,2013-04-28 00:18:00,
2013-04-27 20:23:00,62.8,30.9,30.01,South,180,4.6,4.6,30,0.00,CLR,,0.00,WeatherDisplay:10.37,2013-04-28 00:23:00,
2013-04-27 20:28:00,62.2,30.4,30.01,SSE,157,4.6,4.6,30,0.00,CLR,,0.00,WeatherDisplay:10.37,2013-04-28 00:28:00,
2013-04-27 20:33:00,62.1,30.2,30.01,SSE,157,4.6,4.6,30,0.00,CLR,,0.00,WeatherDisplay:10.37,2013-04-28 00:33:00,
2013-04-27 20:38:00,61.7,29.9,30.01,ESE,112,4.6,4.6,30,0.00,CLR,,0.00,WeatherDisplay:10.37,2013-04-28 00:38:00,
2013-04-27 20:43:00,61.3,29.6,30.01,ESE,112,4.6,4.6,30,0.00,CLR,,0.00,WeatherDisplay:10.37,2013-04-28 00:43:00,
2013-04-27 20:48:00,61.0,29.3,30.01,SSE,157,4.6,4.6,30,0.00,CLR,,0.00,WeatherDisplay:10.37,2013-04-28 00:48:00,
2013-04-27 20:53:00,60.6,29.8,30.01,East,90,4.6,4.6,31,0.00,CLR,,0.00,WeatherDisplay:10.37,2013-04-28 00:53:00,
2013-04-27 20:58:00,60.3,28.7,30.01,ESE,112,4.6,4.6,30,0.00,CLR,,0.00,WeatherDisplay:10.37,2013-04-28 00:58:00,
2013-04-27 21:03:00,60.1,29.3,30.01,ESE,112,4.6,4.6,31,0.00,CLR,,0.00,WeatherDisplay:10.37,2013-04-28 01:03:00,
2013-04-27 21:08:00,59.9,28.4,30.01,ESE,112,4.6,4.6,30,0.00,CLR,,0.00,WeatherDisplay:10.37,2013-04-28 01:08:00,
2013-04-27 21:13:00,59.9,29.2,30.02,ESE,112,1.7,1.7,31,0.00,CLR,,0.00,WeatherDisplay:10.37,2013-04-28 01:13:00,
2013-04-27 21:18:00,59.0,27.6,30.02,ESE,112,1.7,1.7,30,0.00,CLR,,0.00,WeatherDisplay:10.37,2013-04-28 01:18:00,
2013-04-27 21:23:00,58.6,28.1,30.02,ESE,112,3.5,3.6,31,0.00,CLR,,0.00,WeatherDisplay:10.37,2013-04-28 01:23:00,
2013-04-27 21:28:00,58.5,27.9,30.03,ESE,112,3.8,3.8,31,0.00,CLR,,0.00,WeatherDisplay:10.37,2013-04-28 01:28:00,
2013-04-27 21:33:00,58.3,26.9,30.03,SSE,157,3.8,3.8,30,0.00,CLR,,0.00,WeatherDisplay:10.37,2013-04-28 01:33:00,
2013-04-27 21:38:00,57.9,27.4,29.99,ESE,112,3.8,3.8,31,0.00,CLR,,0.00,WeatherDisplay:10.37,2013-04-28 01:38:00,
2013-04-27 21:43:00,57.9,26.6,30.03,SE,135,4.0,4.0,30,0.00,CLR,,0.00,WeatherDisplay:10.37,2013-04-28 01:43:00,
2013-04-27 21:48:00,57.7,27.3,29.99,SSE,157,4.0,4.0,31,0.00,CLR,,0.00,WeatherDisplay:10.37,2013-04-28 01:48:00,
2013-04-27 21:53:00,57.4,27.0,29.99,ESE,112,4.0,4.0,31,0.00,CLR,,0.00,WeatherDisplay:10.37,2013-04-28 01:53:00,
2013-04-27 21:58:00,57.2,26.8,29.99,ESE,112,4.7,4.7,31,0.00,CLR,,0.00,WeatherDisplay:10.37,2013-04-28 01:58:00,
2013-04-27 22:03:00,57.0,26.6,29.99,SE,135,4.7,4.7,31,0.00,CLR,,0.00,WeatherDisplay:10.37,2013-04-28 02:03:00,
2013-04-27 22:08:00,56.7,26.3,29.99,SSE,157,4.7,4.7,31,0.00,CLR,,0.00,WeatherDisplay:10.37,2013-04-28 02:08:00,
2013-04-27 22:13:00,56.7,26.3,29.99,ESE,112,4.0,4.0,31,0.00,CLR,,0.00,WeatherDisplay:10.37,2013-04-28 02:13:00,
2013-04-27 22:18:00,56.3,26.0,29.99,ESE,112,4.0,4.0,31,0.00,CLR,,0.00,WeatherDisplay:10.37,2013-04-28 02:18:00,
2013-04-27 22:23:00,56.1,25.9,29.99,SE,135,4.0,4.0,31,0.00,CLR,,0.00,WeatherDisplay:10.37,2013-04-28 02:23:00,
2013-04-27 22:28:00,55.9,24.9,29.99,ENE,67,4.0,4.0,30,0.00,CLR,,0.00,WeatherDisplay:10.37,2013-04-28 02:28:00,
2013-04-27 22:33:00,55.8,24.8,29.99,ESE,112,4.0,4.0,30,0.00,CLR,,0.00,WeatherDisplay:10.37,2013-04-28 02:33:00,
2013-04-27 22:38:00,55.4,24.4,29.99,SSE,157,4.0,4.0,30,0.00,CLR,,0.00,WeatherDisplay:10.37,2013-04-28 02:38:00,
2013-04-27 22:43:00,55.2,24.3,29.99,ESE,112,4.0,4.0,30,0.00,CLR,,0.00,WeatherDisplay:10.37,2013-04-28 02:43:00,
2013-04-27 22:48:00,55.0,24.1,29.99,SSE,157,4.0,4.0,30,0.00,CLR,,0.00,WeatherDisplay:10.37,2013-04-28 02:48:00,
2013-04-27 22:53:00,54.7,23.8,29.99,SSE,157,4.0,4.0,30,0.00,CLR,,0.00,WeatherDisplay:10.37,2013-04-28 02:53:00,
2013-04-27 22:58:00,54.7,23.8,29.99,South,180,4.0,4.0,30,0.00,CLR,,0.00,WeatherDisplay:10.37,2013-04-28 02:58:00,
2013-04-27 23:03:00,54.5,23.7,29.98,ESE,112,4.0,4.0,30,0.00,CLR,,0.00,WeatherDisplay:10.37,2013-04-28 03:03:00,
2013-04-27 23:08:00,54.1,22.5,29.96,SSE,157,4.0,4.0,29,0.00,CLR,,0.00,WeatherDisplay:10.37,2013-04-28 03:08:00,
2013-04-27 23:13:00,54.0,22.4,30.01,ESE,112,3.5,3.5,29,0.00,CLR,,0.00,WeatherDisplay:10.37,2013-04-28 03:13:00,
2013-04-27 23:18:00,53.6,22.1,30.01,SSE,157,3.5,3.5,29,0.00,CLR,,0.00,WeatherDisplay:10.37,2013-04-28 03:18:00,
2013-04-27 23:23:00,53.4,21.9,30.01,SSE,157,3.5,3.5,29,0.00,CLR,,0.00,WeatherDisplay:10.37,2013-04-28 03:23:00,
2013-04-27 23:28:00,53.2,21.8,30.01,NE,45,3.5,3.5,29,0.00,CLR,,0.00,WeatherDisplay:10.37,2013-04-28 03:28:00,
2013-04-27 23:33:00,53.1,21.6,29.95,East,90,3.5,3.5,29,0.00,CLR,,0.00,WeatherDisplay:10.37,2013-04-28 03:33:00,
2013-04-27 23:38:00,52.9,21.4,29.96,ESE,112,3.5,3.5,29,0.00,CLR,,0.00,WeatherDisplay:10.37,2013-04-28 03:38:00,
2013-04-27 23:43:00,52.9,21.4,29.96,SE,135,3.5,3.5,29,0.00,CLR,,0.00,WeatherDisplay:10.37,2013-04-28 03:43:00,
2013-04-27 23:48:00,52.7,21.3,29.96,ESE,112,3.5,3.5,29,0.00,CLR,,0.00,WeatherDisplay:10.37,2013-04-28 03:48:00,
2013-04-27 23:53:00,52.3,21.0,29.96,SE,135,3.5,3.5,29,0.00,CLR,,0.00,WeatherDisplay:10.37,2013-04-28 03:53:00,
2013-04-27 23:58:00,52.3,21.0,29.96,ESE,112,3.5,3.5,29,0.00,CLR,,0.00,WeatherDisplay:10.37,2013-04-28 03:58:00,